createdAt,value
2023-11-20T00:00:19.260Z,100067.38
2023-11-20T00:03:21.219Z,100094.25
2023-11-20T00:06:23.214Z,100098.59
2023-11-20T00:09:25.085Z,100096.00
2023-11-20T00:12:27.510Z,100114.25
2023-11-20T00:15:29.397Z,100076.13
2023-11-20T00:18:33.804Z,100080.47
2023-11-20T00:21:39.943Z,100071.78
2023-11-20T00:24:41.904Z,100096.13
2023-11-20T00:27:44.474Z,100090.88
2023-11-20T00:30:46.946Z,100090.03
2023-11-20T00:33:49.386Z,100092.66
2023-11-20T00:36:51.375Z,100107.38
2023-11-20T00:39:53.352Z,100113.47
2023-11-20T00:42:55.396Z,100085.59
2023-11-20T00:45:57.554Z,100116.03
2023-11-20T00:49:00.008Z,100129.91
2023-11-20T00:52:02.748Z,100123.81
2023-11-20T00:55:12.088Z,100129.91
2023-11-20T00:58:14.244Z,100129.03
2023-11-20T01:01:16.868Z,100142.03
2023-11-20T01:04:18.982Z,100136.00
2023-11-20T01:07:20.912Z,100123.84
2023-11-20T01:10:23.257Z,100129.97
2023-11-20T01:13:25.181Z,100123.03
2023-11-20T01:16:27.140Z,100111.75
2023-11-20T01:19:29.322Z,100110.03
2023-11-20T01:22:31.949Z,100104.78
2023-11-20T01:25:33.934Z,100097.88
2023-11-20T01:28:36.563Z,100096.09
2023-11-20T01:31:38.561Z,100102.16
2023-11-20T01:34:40.602Z,100108.25
2023-11-20T01:37:42.565Z,100090.88
2023-11-20T01:40:45.528Z,100098.72
2023-11-20T01:43:47.538Z,100093.53
2023-11-20T01:46:50.800Z,100083.97
2023-11-20T01:49:53.137Z,100079.69
2023-11-20T01:52:55.048Z,100065.78
2023-11-20T01:55:57.256Z,100093.56
2023-11-20T01:59:05.271Z,100082.28
2023-11-20T02:02:07.564Z,100090.09
2023-11-20T02:05:10.522Z,100086.56
2023-11-20T02:08:12.450Z,100077.88
2023-11-20T02:11:14.688Z,100071.88
2023-11-20T02:14:16.842Z,100077.94
2023-11-20T02:17:19.084Z,100052.78
2023-11-20T02:20:25.052Z,100035.47
2023-11-20T02:23:27.094Z,100050.22
2023-11-20T02:26:35.311Z,100070.97
2023-11-20T02:29:37.497Z,100066.66
2023-11-20T02:32:39.417Z,100051.88
2023-11-20T02:35:41.243Z,100056.25
2023-11-20T02:38:43.512Z,100047.59
2023-11-20T02:41:46.395Z,100028.50
2023-11-20T02:44:51.585Z,100033.69
2023-11-20T02:47:53.905Z,100057.94
2023-11-20T02:50:56.780Z,100027.63
2023-11-20T02:53:58.615Z,100026.78
2023-11-20T02:57:01.345Z,100039.78
2023-11-20T03:00:03.832Z,100038.06
2023-11-20T03:03:07.718Z,100031.13
2023-11-20T03:06:09.798Z,100055.38
2023-11-20T03:09:12.250Z,100047.59
2023-11-20T03:12:14.161Z,100049.34
2023-11-20T03:15:16.053Z,100051.09
2023-11-20T03:18:18.794Z,100058.88
2023-11-20T03:21:20.811Z,100051.09
2023-11-20T03:24:22.763Z,100038.09
2023-11-20T03:27:24.805Z,100052.78
2023-11-20T03:30:28.715Z,100049.38
2023-11-20T03:33:30.709Z,100042.41
2023-11-20T03:36:35.708Z,100019.88
2023-11-20T03:39:38.125Z,100041.59
2023-11-20T03:42:40.160Z,100051.09
2023-11-20T03:45:42.190Z,100019.88
2023-11-20T03:48:44.129Z,100060.66
2023-11-20T03:51:46.264Z,99999.97
2023-11-20T03:54:48.182Z,100034.69
2023-11-20T03:57:50.065Z,100044.19
2023-11-20T04:00:52.061Z,100040.75
2023-11-20T04:03:54.198Z,100040.75
2023-11-20T04:06:56.143Z,100036.41
2023-11-20T04:09:58.115Z,100039.91
2023-11-20T04:13:00.593Z,100001.72
2023-11-20T04:16:02.698Z,100026.00
2023-11-20T04:19:05.241Z,100025.16
2023-11-20T04:22:08.686Z,100010.44
2023-11-20T04:25:10.870Z,100019.97
2023-11-20T04:28:12.871Z,100018.19
2023-11-20T04:31:14.898Z,100047.69
2023-11-20T04:34:17.043Z,100032.97
2023-11-20T04:37:19.018Z,100019.06
2023-11-20T04:40:21.739Z,100006.09
2023-11-20T04:43:26.843Z,100006.06
2023-11-20T04:46:29.296Z,99993.94
2023-11-20T04:49:31.597Z,100010.41
2023-11-20T04:52:34.436Z,100012.16
2023-11-20T04:55:36.373Z,99997.41
2023-11-20T04:58:39.281Z,99988.72
2023-11-20T05:01:41.288Z,100016.50
2023-11-20T05:04:43.543Z,99996.53
2023-11-20T05:07:45.687Z,99995.66
2023-11-20T05:10:47.639Z,100012.16
2023-11-20T05:13:49.722Z,100013.88
2023-11-20T05:16:51.628Z,100010.41
2023-11-20T05:19:53.534Z,100000.00
2023-11-20T05:22:55.528Z,99963.56
2023-11-20T05:25:57.475Z,100013.00
2023-11-20T05:28:59.412Z,100018.22
2023-11-20T05:32:01.347Z,100010.41
2023-11-20T05:35:03.529Z,100013.03
2023-11-20T05:38:05.482Z,100003.50
2023-11-20T05:41:08.275Z,99933.25
2023-11-20T05:44:10.215Z,100026.88
2023-11-20T05:47:12.193Z,100028.63
2023-11-20T05:50:15.022Z,99917.63
2023-11-20T05:53:16.963Z,100031.19
2023-11-20T05:56:18.798Z,100038.16
2023-11-20T05:59:20.998Z,100011.28
2023-11-20T06:02:22.914Z,99999.97
2023-11-20T06:05:24.802Z,100037.28
2023-11-20T06:08:26.761Z,100034.69
2023-11-20T06:11:30.049Z,100012.13
2023-11-20T06:14:32.891Z,100041.59
2023-11-20T06:17:35.989Z,100046.81
2023-11-20T06:20:38.029Z,100054.59
2023-11-20T06:23:39.994Z,100046.78
2023-11-20T06:26:42.858Z,100046.81
2023-11-20T06:29:45.120Z,100049.44
2023-11-20T06:32:48.616Z,100061.56
2023-11-20T06:35:50.946Z,100065.91
2023-11-20T06:38:54.249Z,100083.22
2023-11-20T06:41:56.151Z,100076.31
2023-11-20T06:44:58.138Z,100077.19
2023-11-20T06:48:00.092Z,100078.94
2023-11-20T06:51:02.125Z,100062.44
2023-11-20T06:54:05.257Z,100058.13
2023-11-20T06:57:07.374Z,100077.22
2023-11-20T07:00:13.325Z,100063.31
2023-11-20T07:03:15.474Z,100064.19
2023-11-20T07:06:20.291Z,100073.72
2023-11-20T07:09:30.435Z,100068.50
2023-11-20T07:12:32.415Z,100064.19
2023-11-20T07:15:35.098Z,100074.59
2023-11-20T07:18:37.361Z,100062.47
2023-11-20T07:21:40.949Z,100060.75
2023-11-20T07:24:43.972Z,100065.09
2023-11-20T07:27:46.101Z,100077.22
2023-11-20T07:30:49.666Z,100072.88
2023-11-20T07:33:51.900Z,100079.84
2023-11-20T07:36:55.874Z,100082.44
2023-11-20T07:39:58.683Z,100094.56
2023-11-20T07:43:00.603Z,100088.47
2023-11-20T07:46:02.583Z,100067.69
2023-11-20T07:49:04.684Z,100093.69
2023-11-20T07:52:07.405Z,100082.44
2023-11-20T07:55:10.159Z,100042.53
2023-11-20T07:58:12.170Z,100078.97
2023-11-20T08:01:14.518Z,100078.94
2023-11-20T08:04:18.295Z,100057.28
2023-11-20T08:07:20.447Z,100059.00
2023-11-20T08:10:22.585Z,100009.56
2023-11-20T08:13:25.481Z,100045.09
2023-11-20T08:16:27.530Z,100048.59
2023-11-20T08:19:30.833Z,100035.59
2023-11-20T08:22:36.009Z,100037.31
2023-11-20T08:25:38.199Z,100049.47
2023-11-20T08:28:42.905Z,100038.16
2023-11-20T08:31:45.368Z,100030.34
2023-11-20T08:34:47.514Z,100045.13
2023-11-20T08:37:49.470Z,100032.94
2023-11-20T08:40:52.017Z,100023.44
2023-11-20T08:43:54.011Z,100035.56
2023-11-20T08:46:56.006Z,99995.69
2023-11-20T08:49:57.967Z,100028.59
2023-11-20T08:53:00.403Z,100022.53
2023-11-20T08:56:02.881Z,100036.41
2023-11-20T08:59:04.803Z,100033.81
2023-11-20T09:02:07.431Z,100025.19
2023-11-20T09:05:11.478Z,100049.47
2023-11-20T09:08:13.481Z,100034.69
2023-11-20T09:11:15.429Z,100031.25
2023-11-20T09:14:17.991Z,100032.94
2023-11-20T09:17:20.431Z,100036.41
2023-11-20T09:20:25.666Z,100033.81
2023-11-20T09:23:28.064Z,100014.72
2023-11-20T09:26:30.060Z,100010.38
2023-11-20T09:29:31.985Z,100034.66
2023-11-20T09:32:34.058Z,100026.84
2023-11-20T09:35:37.380Z,100017.28
2023-11-20T09:38:39.685Z,100025.97
2023-11-20T09:41:45.299Z,99975.69
2023-11-20T09:44:52.624Z,100024.22
2023-11-20T09:47:58.831Z,99999.03
2023-11-20T09:51:07.488Z,100014.66
2023-11-20T09:54:17.206Z,99995.59
2023-11-20T09:57:24.507Z,100000.81
2023-11-20T10:00:26.697Z,99992.13
2023-11-20T10:03:28.921Z,99981.78
2023-11-20T10:06:33.364Z,99997.41
2023-11-20T10:09:36.417Z,100000.84
2023-11-20T10:12:40.911Z,99999.09
2023-11-20T10:15:42.753Z,99987.84
2023-11-20T10:18:44.962Z,99985.22
2023-11-20T10:21:50.290Z,99980.03
2023-11-20T10:24:52.239Z,99995.59
2023-11-20T10:27:54.201Z,100003.41
2023-11-20T10:30:56.585Z,99995.59
2023-11-20T10:34:09.677Z,99996.44
2023-11-20T10:37:13.092Z,99999.94
2023-11-20T10:40:15.207Z,99990.38
2023-11-20T10:43:17.258Z,100003.38
2023-11-20T10:46:21.709Z,99996.44
2023-11-20T10:49:25.652Z,99998.13
2023-11-20T10:52:30.648Z,99987.69
2023-11-20T10:55:40.172Z,99985.97
2023-11-20T10:58:45.187Z,99986.81
2023-11-20T11:01:48.013Z,99972.06
2023-11-20T11:04:53.926Z,99980.69
2023-11-20T11:07:59.052Z,99979.81
2023-11-20T11:11:05.040Z,99977.25
2023-11-20T11:14:07.194Z,99959.88
2023-11-20T11:17:14.963Z,99963.38
2023-11-20T11:20:24.385Z,99957.28
2023-11-20T11:23:35.245Z,99968.53
2023-11-20T11:26:49.951Z,99969.41
2023-11-20T11:29:58.496Z,99958.09
2023-11-20T11:33:18.599Z,99964.13
2023-11-20T11:36:23.657Z,99958.06
2023-11-20T11:39:40.534Z,99945.91
2023-11-20T11:42:52.615Z,99897.50
2023-11-20T11:45:59.401Z,99955.56
2023-11-20T11:49:21.926Z,99922.66
2023-11-20T11:52:32.389Z,99946.84
2023-11-20T11:55:43.089Z,99905.25
2023-11-20T11:58:46.548Z,99943.34
2023-11-20T12:01:49.379Z,99932.91
2023-11-20T12:04:57.397Z,99937.22
2023-11-20T12:08:01.139Z,99933.75
2023-11-20T12:11:03.421Z,99886.13
2023-11-20T12:14:13.875Z,99915.56
2023-11-20T12:17:17.369Z,99917.31
2023-11-20T12:20:19.626Z,99909.50
2023-11-20T12:23:35.253Z,99928.53
2023-11-20T12:26:38.043Z,99887.88
2023-11-20T12:29:41.771Z,99929.44
2023-11-20T12:32:43.769Z,99908.66
2023-11-20T12:35:53.440Z,99914.69
2023-11-20T12:38:57.034Z,99883.47
2023-11-20T12:41:59.093Z,99892.13
2023-11-20T12:45:02.094Z,99910.38
2023-11-20T12:48:04.297Z,99906.03
2023-11-20T12:51:08.375Z,99906.91
2023-11-20T12:54:11.662Z,99912.09
2023-11-20T12:57:13.602Z,99914.69
2023-11-20T13:00:19.634Z,99893.06
2023-11-20T13:03:21.822Z,99899.94
2023-11-20T13:06:23.771Z,99878.28
2023-11-20T13:09:26.863Z,99901.66
2023-11-20T13:12:29.731Z,99888.66
2023-11-20T13:15:32.986Z,99860.03
2023-11-20T13:18:46.834Z,99894.66
2023-11-20T13:21:50.650Z,99893.75
2023-11-20T13:24:57.054Z,99893.72
2023-11-20T13:27:59.519Z,99874.72
2023-11-20T13:31:09.781Z,99872.13
2023-11-20T13:34:12.146Z,99877.34
2023-11-20T13:37:14.140Z,99880.81
2023-11-20T13:40:18.484Z,99866.91
2023-11-20T13:43:25.807Z,99877.38
2023-11-20T13:46:34.358Z,99883.44
2023-11-20T13:49:36.723Z,99886.06
2023-11-20T13:52:39.807Z,99896.47
2023-11-20T13:55:49.260Z,99885.22
2023-11-20T13:58:51.849Z,99894.69
2023-11-20T14:01:54.060Z,99899.88
2023-11-20T14:04:56.124Z,99895.53
2023-11-20T14:07:59.496Z,99882.50
2023-11-20T14:11:01.463Z,99879.06
2023-11-20T14:14:04.437Z,99867.84
2023-11-20T14:17:06.823Z,99884.25
2023-11-20T14:20:09.788Z,99904.16
2023-11-20T14:23:11.741Z,99850.53
2023-11-20T14:26:29.035Z,99887.72
2023-11-20T14:29:36.000Z,99879.06
2023-11-20T14:32:43.234Z,99897.19
2023-11-20T14:35:45.445Z,99883.34
2023-11-20T14:38:47.357Z,99892.06
2023-11-20T14:41:50.672Z,99887.69
2023-11-20T14:44:53.352Z,99892.06
2023-11-20T14:47:55.317Z,99896.41
2023-11-20T14:50:57.365Z,99901.59
2023-11-20T14:54:00.161Z,99898.13
2023-11-20T14:57:04.757Z,99898.97
2023-11-20T15:00:15.286Z,99883.44
2023-11-20T15:03:17.361Z,99895.53
2023-11-20T15:06:19.603Z,99879.06
2023-11-20T15:09:21.493Z,99885.09
2023-11-20T15:12:23.417Z,99853.94
2023-11-20T15:15:25.886Z,99877.28
2023-11-20T15:18:27.772Z,99879.03
2023-11-20T15:21:29.681Z,99870.34
2023-11-20T15:24:33.536Z,99888.56
2023-11-20T15:27:36.777Z,99889.44
2023-11-20T15:30:38.636Z,99860.84
2023-11-20T15:33:40.780Z,99881.63
2023-11-20T15:36:42.725Z,99873.81
2023-11-20T15:39:44.863Z,99878.13
2023-11-20T15:42:46.905Z,99878.13
2023-11-20T15:45:53.014Z,99832.31
2023-11-20T15:48:56.524Z,99881.66
2023-11-20T15:51:58.405Z,99838.38
2023-11-20T15:55:01.159Z,99879.88
2023-11-20T15:58:03.303Z,99880.75
2023-11-20T16:01:05.641Z,99878.22
2023-11-20T16:04:07.684Z,99889.44
2023-11-20T16:07:09.633Z,99883.34
2023-11-20T16:10:15.936Z,99829.72
2023-11-20T16:13:19.272Z,99867.78
2023-11-20T16:16:21.376Z,99865.13
2023-11-20T16:19:25.090Z,99865.13
2023-11-20T16:22:27.172Z,99825.34
2023-11-20T16:25:40.219Z,99862.59
2023-11-20T16:28:47.767Z,99872.09
2023-11-20T16:31:52.801Z,99868.63
2023-11-20T16:34:54.774Z,99875.59
2023-11-20T16:37:58.689Z,99872.09
2023-11-20T16:41:00.965Z,99887.66
2023-11-20T16:44:03.312Z,99873.81
2023-11-20T16:47:05.528Z,99863.44
2023-11-20T16:50:07.994Z,99872.03
2023-11-20T16:53:10.022Z,99870.31
2023-11-20T16:56:12.169Z,99864.25
2023-11-20T16:59:15.244Z,99866.81
2023-11-20T17:02:17.996Z,99856.41
2023-11-20T17:05:20.734Z,99865.06
2023-11-20T17:08:25.080Z,99853.84
2023-11-20T17:11:27.068Z,99865.91
2023-11-20T17:14:29.146Z,99848.56
2023-11-20T17:17:31.325Z,99866.84
2023-11-20T17:20:33.277Z,99858.16
2023-11-20T17:23:35.262Z,99861.59
2023-11-20T17:26:37.375Z,99857.28
2023-11-20T17:29:40.096Z,99861.59
2023-11-20T17:32:42.887Z,99855.47
2023-11-20T17:35:44.978Z,99855.47
2023-11-20T17:38:48.231Z,99861.53
2023-11-20T17:41:51.215Z,99870.22
2023-11-20T17:44:53.276Z,99859.81
2023-11-20T17:47:55.272Z,99847.63
2023-11-20T17:50:57.270Z,99851.97
2023-11-20T17:53:59.268Z,99845.00
2023-11-20T17:57:01.225Z,99823.41
2023-11-20T18:00:06.823Z,99810.47
2023-11-20T18:03:14.525Z,99832.06
2023-11-20T18:06:16.933Z,99851.06
2023-11-20T18:09:22.525Z,99844.09
2023-11-20T18:12:24.977Z,99845.00
2023-11-20T18:15:26.842Z,99845.88
2023-11-20T18:18:28.829Z,99856.25
2023-11-20T18:21:36.034Z,99861.47
2023-11-20T18:24:43.994Z,99859.72
2023-11-20T18:27:46.212Z,99851.03
2023-11-20T18:30:50.979Z,99851.88
2023-11-20T18:33:52.928Z,99854.50
2023-11-20T18:36:59.132Z,99850.19
2023-11-20T18:40:01.902Z,99835.47
2023-11-20T18:56:13.475Z,99824.56
2023-11-20T18:59:16.169Z,99841.91
2023-11-20T19:02:18.203Z,99826.34
2023-11-20T19:05:20.333Z,99828.94
2023-11-20T19:08:22.304Z,99809.09
2023-11-20T19:11:24.252Z,99824.56
2023-11-20T19:14:27.817Z,99832.34
2023-11-20T19:17:33.130Z,99824.50
2023-11-20T19:20:35.041Z,99818.44
2023-11-20T19:23:37.686Z,99832.34
2023-11-20T19:26:39.830Z,99787.34
2023-11-20T19:29:42.846Z,99776.16
2023-11-20T19:32:45.691Z,99802.06
2023-11-20T19:35:47.640Z,99795.16
2023-11-20T19:38:51.587Z,99815.97
2023-11-20T19:42:00.754Z,99810.00
2023-11-20T19:45:05.051Z,99815.31
2023-11-20T19:48:07.035Z,99807.53
2023-11-20T19:51:09.329Z,99809.25
2023-11-20T19:54:11.328Z,99804.88
2023-11-20T19:57:13.746Z,99811.75
2023-11-20T20:00:18.731Z,99803.16
2023-11-20T20:03:22.474Z,99816.13
2023-11-20T20:06:25.073Z,99811.81
2023-11-20T20:09:28.749Z,99806.56
2023-11-20T20:12:31.044Z,99817.78
2023-11-20T20:15:33.408Z,99810.81
2023-11-20T20:18:35.348Z,99814.28
2023-11-20T20:21:37.611Z,99803.94
2023-11-20T20:24:41.960Z,99800.50
2023-11-20T20:40:51.509Z,99817.56
2023-11-20T20:43:53.630Z,99818.44
2023-11-20T20:46:55.659Z,99792.59
2023-11-20T20:49:57.750Z,99806.50
2023-11-20T20:52:59.731Z,99814.28
2023-11-20T20:56:06.601Z,99813.41
2023-11-20T20:59:09.344Z,99803.91
2023-11-20T21:02:11.809Z,99798.72
2023-11-20T21:05:15.628Z,99797.06
2023-11-20T21:08:17.546Z,99803.94
2023-11-20T21:11:19.446Z,99797.06
2023-11-20T21:14:24.820Z,99814.38
2023-11-20T21:17:26.991Z,99798.84
2023-11-20T21:20:28.768Z,99810.00
2023-11-20T21:23:30.594Z,99814.34
2023-11-20T21:26:33.457Z,99806.53
2023-11-20T21:29:35.420Z,99818.72
2023-11-20T21:32:37.327Z,99812.66
2023-11-20T21:35:47.554Z,99812.66
2023-11-20T21:38:51.970Z,99808.34
2023-11-20T21:41:53.926Z,99818.69
2023-11-20T21:44:57.743Z,99819.53
2023-11-20T21:47:59.657Z,99816.06
2023-11-20T21:51:01.742Z,99814.28
2023-11-20T21:54:04.417Z,99811.69
2023-11-20T21:57:06.324Z,99808.22
2023-11-20T22:00:13.657Z,99811.69
2023-11-20T22:03:16.549Z,99803.88
2023-11-20T22:06:18.686Z,99801.22
2023-11-20T22:09:21.332Z,99786.50
2023-11-20T22:12:23.371Z,99802.94
2023-11-20T22:15:26.510Z,99790.91
2023-11-20T22:18:28.536Z,99789.19
2023-11-20T22:21:30.409Z,99797.81
2023-11-20T22:24:32.597Z,99797.78
2023-11-20T22:27:34.482Z,99800.38
2023-11-20T22:30:37.241Z,99781.31
2023-11-20T22:33:39.132Z,99792.56
2023-11-20T22:36:42.213Z,99771.78
2023-11-20T22:39:44.055Z,99776.94
2023-11-20T22:42:46.741Z,99790.78
2023-11-20T22:45:48.782Z,99777.81
2023-11-20T22:48:50.709Z,99764.84
2023-11-20T22:51:52.506Z,99782.13
2023-11-20T22:54:54.407Z,99778.63
2023-11-20T22:57:56.904Z,99777.72
2023-11-20T23:01:01.524Z,99767.31
2023-11-20T23:04:04.024Z,99770.72
2023-11-20T23:07:06.650Z,99769.91
2023-11-20T23:10:10.661Z,99768.19
2023-11-20T23:13:13.868Z,99776.03
2023-11-20T23:16:16.877Z,99767.34
2023-11-20T23:19:19.570Z,99766.47
2023-11-20T23:22:21.954Z,99772.47
2023-11-20T23:25:25.082Z,99784.53
2023-11-20T23:28:28.375Z,99778.47
2023-11-20T23:31:30.392Z,99780.19
2023-11-20T23:34:33.436Z,99760.31
2023-11-20T23:37:35.799Z,99752.47
2023-11-20T23:40:37.727Z,99761.97
2023-11-20T23:43:39.671Z,99743.00
2023-11-20T23:46:43.604Z,99718.84
2023-11-20T23:49:47.124Z,99771.53
2023-11-20T23:52:49.152Z,99774.13
2023-11-20T23:55:51.139Z,99762.03
2023-11-20T23:58:53.274Z,99774.94
